Time;durP1;ratioP1;P1;durP2;ratioP2;P2;SDS_P1;SDS_P2;PMS_P1;PMS_P2;Temp;Humidity;BMP_temperature;BMP_pressure;BME280_temperature;BME280_humidity;BME280_pressure;Samples;Min_cycle;Max_cycle;Signal;HPM_P1;HPM_P2
2021/06/29 06:27:26;;;;;;;5.50;5.00;;;;;;;23.65;61.77;99928.98;1732570;82;21238;-35
2021/06/29 06:29:52;;;;;;;7.62;5.28;;;;;;;23.73;61.58;99922.73;1723767;81;21463;-40
2021/06/29 06:32:19;;;;;;;5.53;5.03;;;;;;;23.79;61.22;99922.36;1720041;82;21065;-34
2021/06/29 06:34:46;;;;;;;10.10;5.12;;;;;;;23.89;61.45;99919.52;1696774;83;21504;-40
2021/06/29 06:37:12;;;;;;;6.62;5.33;;;;;;;23.97;60.92;99924.87;1719706;83;21678;-36
2021/06/29 06:39:39;;;;;;;7.30;5.22;;;;;;;24.02;59.99;99925.45;1706983;82;21056;-35
2021/06/29 06:42:07;;;;;;;6.03;4.65;;;;;;;24.07;60.78;99922.88;1721744;82;21588;-40
2021/06/29 06:44:34;;;;;;;8.58;4.80;;;;;;;24.18;60.63;99918.20;1727668;82;21018;-34
2021/06/29 06:47:01;;;;;;;5.22;4.58;;;;;;;24.33;60.79;99927.06;1715049;82;21168;-35
2021/06/29 06:49:28;;;;;;;7.83;4.92;;;;;;;24.44;60.38;99923.27;1730574;81;21032;-35
2021/06/29 06:51:55;;;;;;;12.10;5.37;;;;;;;24.53;59.86;99923.19;1735624;81;21436;-35
2021/06/29 06:54:23;;;;;;;7.55;4.83;;;;;;;24.59;60.45;99925.47;1736913;82;21124;-35
2021/06/29 06:56:50;;;;;;;5.90;4.47;;;;;;;24.67;59.49;99928.02;1727504;81;21552;-34
2021/06/29 06:59:17;;;;;;;9.15;4.75;;;;;;;24.67;59.49;99928.02;1722972;82;21018;-35
2021/06/29 07:01:45;;;;;;;8.45;4.78;;;;;;;24.71;58.93;99926.02;1735665;82;21630;-34
2021/06/29 07:04:12;;;;;;;9.90;4.92;;;;;;;24.78;59.72;99925.99;1727729;81;21084;-34
2021/06/29 07:06:38;;;;;;;7.03;4.87;;;;;;;24.75;58.15;99930.19;1724118;81;21088;-36
2021/06/29 07:09:06;;;;;;;6.12;4.85;;;;;;;24.68;58.65;99924.86;1729290;83;21129;-37
2021/06/29 07:11:32;;;;;;;4.62;3.95;;;;;;;24.69;59.34;99931.44;1702978;83;21015;-40
2021/06/29 07:13:59;;;;;;;4.97;4.45;;;;;;;24.69;59.32;99927.91;1720368;82;21089;-40
2021/06/29 07:16:26;;;;;;;5.50;4.30;;;;;;;24.74;58.42;99931.16;1725357;82;21065;-34
2021/06/29 07:18:53;;;;;;;7.33;4.67;;;;;;;24.74;58.15;99936.98;1724150;83;21090;-39
2021/06/29 07:21:25;;;;;;;9.25;4.45;;;;;;;24.75;57.21;99926.17;1722534;81;21049;-38
2021/06/29 07:23:48;;;;;;;5.37;4.10;;;;;;;24.84;57.24;99932.28;1724949;82;21611;-34
2021/06/29 07:26:15;;;;;;;5.55;4.17;;;;;;;24.90;57.56;99936.38;1718509;81;21546;-33
2021/06/29 07:28:42;;;;;;;5.25;4.40;;;;;;;24.97;56.43;99932.82;1718565;83;21039;-34
2021/06/29 07:31:10;;;;;;;4.83;4.25;;;;;;;25.02;56.79;99940.07;1717235;83;21099;-37
2021/06/29 07:33:38;;;;;;;5.70;4.47;;;;;;;24.97;56.30;99942.19;1731878;82;22135;-36
2021/06/29 07:36:09;;;;;;;9.13;4.50;;;;;;;24.97;56.30;99942.19;1690345;83;21544;-35
2021/06/29 07:38:39;;;;;;;4.05;3.65;;;;;;;24.99;56.07;99946.50;1729721;82;21627;-39
2021/06/29 07:41:05;;;;;;;9.88;4.08;;;;;;;25.01;56.63;99947.24;1727771;82;21501;-39
2021/06/29 07:43:33;;;;;;;5.58;3.92;;;;;;;25.04;56.96;99947.02;1729549;82;21642;-34
2021/06/29 07:46:00;;;;;;;4.03;3.37;;;;;;;25.12;56.90;99944.76;1723427;83;21027;-36
2021/06/29 07:48:26;;;;;;;3.90;3.45;;;;;;;25.25;56.08;99947.48;1712029;82;21089;-35
2021/06/29 07:50:54;;;;;;;3.83;3.35;;;;;;;25.34;54.22;99949.55;1662706;85;21722;-35
2021/06/29 07:53:21;;;;;;;7.05;3.67;;;;;;;25.36;54.07;99946.77;1703448;84;21095;-35
2021/06/29 07:55:49;;;;;;;5.92;3.60;;;;;;;25.40;55.10;99945.13;1709779;82;21027;-35
2021/06/29 07:58:17;;;;;;;4.33;3.60;;;;;;;25.45;53.63;99945.69;1703227;83;21649;-35
2021/06/29 08:00:44;;;;;;;4.20;3.80;;;;;;;25.52;53.30;99945.27;1708174;83;21080;-35
2021/06/29 08:03:11;;;;;;;3.55;3.25;;;;;;;25.61;54.74;99945.48;1731150;83;21089;-40
2021/06/29 08:05:37;;;;;;;3.77;3.00;;;;;;;25.72;52.33;99941.59;1727281;82;21598;-41
2021/06/29 08:08:07;;;;;;;3.85;3.30;;;;;;;25.75;52.16;99943.26;1722237;82;21117;-36
2021/06/29 08:10:35;;;;;;;8.48;3.37;;;;;;;25.80;52.13;99937.56;1728265;81;21125;-37
2021/06/29 08:13:04;;;;;;;4.17;3.35;;;;;;;25.83;50.86;99943.58;1722237;82;21522;-41
2021/06/29 08:15:30;;;;;;;5.85;3.20;;;;;;;25.82;51.06;99946.38;1714379;83;20975;-41
2021/06/29 08:17:57;;;;;;;4.72;3.35;;;;;;;25.79;50.95;99943.41;1724443;82;21105;-41
2021/06/29 08:20:24;;;;;;;5.12;3.40;;;;;;;25.81;52.11;99942.84;1728083;83;21035;-41
2021/06/29 08:22:52;;;;;;;8.08;3.90;;;;;;;25.87;52.14;99942.89;1719629;83;21110;-41
2021/06/29 08:25:20;;;;;;;3.87;3.45;;;;;;;25.94;52.07;99939.68;1724442;83;21050;-36
2021/06/29 08:27:47;;;;;;;6.60;3.65;;;;;;;26.03;49.45;99942.19;1728886;83;21066;-42
2021/06/29 08:30:15;;;;;;;4.92;3.17;;;;;;;26.05;50.97;99939.42;1719474;81;21062;-42
2021/06/29 08:32:42;;;;;;;4.10;3.20;;;;;;;26.11;51.49;99932.29;1723431;82;21088;-36
2021/06/29 08:35:10;;;;;;;5.80;3.17;;;;;;;26.23;49.94;99932.28;1721115;83;21019;-35
2021/06/29 08:37:39;;;;;;;11.57;3.80;;;;;;;26.27;50.99;99932.94;1733419;83;21633;-41
2021/06/29 08:40:09;;;;;;;4.55;2.67;;;;;;;26.22;51.41;99928.38;1727051;81;21139;-42
2021/06/29 08:42:37;;;;;;;3.12;2.47;;;;;;;26.28;49.55;99935.98;1730403;81;21612;-41
2021/06/29 08:45:07;;;;;;;3.55;3.12;;;;;;;26.30;47.47;99930.02;1716992;82;21086;-41
2021/06/29 08:47:35;;;;;;;5.20;3.35;;;;;;;26.36;49.60;99922.88;1728666;81;21683;-42
2021/06/29 08:50:02;;;;;;;3.62;3.02;;;;;;;26.48;49.78;99927.39;1686385;83;21024;-35
2021/06/29 08:52:29;;;;;;;3.52;3.22;;;;;;;26.55;49.21;99930.97;1713435;83;21764;-41
2021/06/29 08:54:56;;;;;;;3.65;2.85;;;;;;;26.61;50.10;99921.99;1698639;83;21594;-40
2021/06/29 08:57:23;;;;;;;5.25;3.20;;;;;;;26.62;48.38;99929.59;1702769;83;21081;-36
2021/06/29 08:59:49;;;;;;;3.65;3.10;;;;;;;26.46;49.05;99928.00;1716717;83;21980;-42
2021/06/29 09:02:17;;;;;;;4.15;2.60;;;;;;;26.29;48.76;99926.97;1670634;84;21053;-43
2021/06/29 09:04:50;;;;;;;3.42;2.85;;;;;;;26.27;49.96;99920.87;1698540;84;21441;-36
2021/06/29 09:07:22;;;;;;;6.15;2.87;;;;;;;26.35;49.14;99918.48;1719534;81;21017;-42
2021/06/29 09:09:57;;;;;;;4.33;3.05;;;;;;;26.40;49.45;99910.97;1718864;81;21049;-43
2021/06/29 09:12:49;;;;;;;3.92;2.62;;;;;;;26.44;49.12;99907.60;1704866;82;21508;-42
2021/06/29 09:15:26;;;;;;;7.12;2.70;;;;;;;26.58;48.80;99907.48;1709548;81;21026;-41
2021/06/29 09:17:56;;;;;;;3.77;2.83;;;;;;;26.72;49.74;99901.09;1713870;82;21040;-41
2021/06/29 09:20:49;;;;;;;3.02;2.50;;;;;;;26.83;48.67;99902.51;1709390;83;21563;-41
2021/06/29 09:23:41;;;;;;;7.20;3.00;;;;;;;26.85;47.24;99904.62;1701249;82;21137;-36
2021/06/29 09:26:14;;;;;;;4.30;2.95;;;;;;;26.86;46.78;99894.73;1707276;82;21079;-35
2021/06/29 09:28:47;;;;;;;5.70;2.85;;;;;;;26.90;47.20;99891.69;1673946;84;21103;-41
2021/06/29 09:31:18;;;;;;;8.03;3.52;;;;;;;26.96;46.23;99899.31;1664005;84;21089;-42
2021/06/29 09:33:58;;;;;;;4.47;3.05;;;;;;;26.95;47.29;99884.16;1710848;82;21042;-42
2021/06/29 09:36:27;;;;;;;4.85;2.95;;;;;;;26.95;47.71;99877.94;1708202;83;21544;-37
2021/06/29 09:38:59;;;;;;;4.78;2.65;;;;;;;27.01;46.25;99887.72;1704588;82;21139;-37
2021/06/29 09:41:29;;;;;;;5.47;2.20;;;;;;;26.96;44.75;99880.98;1721896;82;21497;-37
2021/06/29 09:44:05;;;;;;;6.42;2.80;;;;;;;26.90;43.67;99894.86;1720857;81;21071;-37
2021/06/29 09:46:33;;;;;;;2.92;2.62;;;;;;;26.92;44.79;99884.40;1717100;83;21054;-37
2021/06/29 09:49:14;;;;;;;5.90;2.80;;;;;;;26.92;45.75;99887.57;1722638;83;21173;-37
2021/06/29 09:51:50;;;;;;;7.83;2.70;;;;;;;26.77;45.26;99885.03;1725066;83;21007;-38
2021/06/29 09:54:21;;;;;;;3.33;2.87;;;;;;;26.69;46.46;99886.58;1722669;83;21551;-37
2021/06/29 09:56:47;;;;;;;5.70;2.30;;;;;;;26.78;45.72;99872.47;1721375;83;21604;-42
2021/06/29 09:59:21;;;;;;;3.83;2.72;;;;;;;26.91;46.09;99871.10;1722568;83;21051;-42
2021/06/29 10:01:48;;;;;;;6.00;2.50;;;;;;;27.00;45.76;99868.56;1722984;82;21030;-42
2021/06/29 10:04:15;;;;;;;3.52;2.50;;;;;;;27.09;46.64;99868.91;1723190;83;21953;-41
2021/06/29 10:06:43;;;;;;;2.92;2.58;;;;;;;27.19;44.86;99871.23;1721712;83;21015;-42
2021/06/29 10:09:15;;;;;;;7.50;2.70;;;;;;;27.18;45.85;99862.81;1727522;82;21565;-37
2021/06/29 10:11:43;;;;;;;3.33;2.40;;;;;;;27.20;46.06;99863.09;1720855;83;21322;-37
2021/06/29 10:14:16;;;;;;;4.10;2.65;;;;;;;27.30;45.54;99873.48;1729224;83;21109;-38
2021/06/29 10:16:47;;;;;;;2.58;2.37;;;;;;;27.38;45.46;99864.00;1689812;84;21572;-37
2021/06/29 10:22:05;;;;;;;4.37;3.05;;;;;;;27.31;45.06;99863.13;1719085;83;21034;-42
2021/06/29 10:24:36;;;;;;;6.70;3.08;;;;;;;27.22;46.78;99873.22;1717795;83;20992;-42
2021/06/29 10:27:06;;;;;;;3.27;2.47;;;;;;;27.18;47.06;99848.91;1722627;83;21099;-42
2021/06/29 10:29:33;;;;;;;2.30;2.10;;;;;;;27.22;45.71;99849.05;1723611;83;20987;-43
2021/06/29 10:32:07;;;;;;;2.85;2.60;;;;;;;27.33;46.00;99846.89;1728759;81;21501;-43
2021/06/29 10:34:36;;;;;;;4.10;2.47;;;;;;;27.52;43.07;99849.01;1719069;82;22636;-39
2021/06/29 10:37:03;;;;;;;5.60;2.37;;;;;;;27.52;44.09;99850.35;1696297;84;21002;-39
2021/06/29 10:39:32;;;;;;;4.87;2.62;;;;;;;27.46;44.46;99854.37;1700537;83;21036;-39
2021/06/29 10:42:03;;;;;;;4.60;2.50;;;;;;;27.66;43.43;99851.95;1660636;85;21049;-40
2021/06/29 10:44:39;;;;;;;2.62;2.42;;;;;;;27.95;43.11;99852.39;1693718;83;21037;-40
2021/06/29 10:47:32;;;;;;;6.67;2.42;;;;;;;28.21;42.39;99840.92;1695897;83;21014;-39
2021/06/29 10:49:57;;;;;;;5.22;2.30;;;;;;;28.36;43.04;99846.45;1699201;84;21006;-39
2021/06/29 10:52:34;;;;;;;3.58;2.75;;;;;;;28.32;44.14;99845.83;1699036;84;21092;-33
2021/06/29 10:55:29;;;;;;;3.85;2.40;;;;;;;28.05;43.70;99852.89;1716484;82;21062;-34
2021/06/29 10:57:58;;;;;;;2.90;2.70;;;;;;;27.62;45.71;99858.08;1724399;83;21573;-38
2021/06/29 11:00:32;;;;;;;3.58;2.85;;;;;;;27.18;47.09;99865.50;1720217;83;21489;-39
2021/06/29 11:03:10;;;;;;;7.92;2.95;;;;;;;26.81;48.21;99870.06;1724077;82;21113;-38
2021/06/29 11:05:44;;;;;;;5.83;3.22;;;;;;;26.47;48.96;99860.47;1724432;83;21074;-38
2021/06/29 11:08:20;;;;;;;3.80;2.80;;;;;;;26.24;49.81;99858.92;1726953;81;21604;-38
2021/06/29 11:10:49;;;;;;;5.53;2.92;;;;;;;26.23;50.59;99865.74;1726661;81;21077;-39
2021/06/29 11:13:18;;;;;;;6.28;2.47;;;;;;;26.37;50.68;99857.55;1731675;82;21077;-38
2021/06/29 11:15:56;;;;;;;3.80;2.62;;;;;;;26.49;49.72;99855.83;1724714;83;21011;-38
2021/06/29 11:18:41;;;;;;;5.45;2.90;;;;;;;26.66;48.72;99861.30;1721272;83;21083;-38
2021/06/29 11:21:09;;;;;;;5.20;2.52;;;;;;;26.68;48.64;99858.90;1710657;82;21023;-39
2021/06/29 11:23:37;;;;;;;3.80;3.00;;;;;;;26.70;48.39;99858.78;1699891;84;21125;-38
2021/06/29 11:26:16;;;;;;;5.60;1.70;;;;;;;26.83;47.81;99850.19;1703374;83;21091;-33
2021/06/29 11:28:50;;;;;;;5.22;2.02;;;;;;;26.97;44.80;99847.83;1709869;83;21038;-34
2021/06/29 11:31:30;;;;;;;6.08;2.25;;;;;;;27.10;44.09;99847.30;1728243;82;21000;-34
2021/06/29 11:34:04;;;;;;;2.98;2.20;;;;;;;27.25;43.78;99843.46;1724297;80;21558;-34
2021/06/29 11:36:37;;;;;;;3.12;2.00;;;;;;;27.39;44.00;99839.70;1729890;82;20994;-38
2021/06/29 11:39:22;;;;;;;3.30;3.00;;;;;;;27.49;43.27;99839.38;1727432;82;21038;-39
2021/06/29 11:42:04;;;;;;;4.00;2.70;;;;;;;27.58;43.69;99841.33;1721526;83;21011;-38
2021/06/29 11:44:41;;;;;;;2.70;2.50;;;;;;;27.71;44.58;99847.12;1725501;83;21109;-39
2021/06/29 11:47:11;;;;;;;2.45;2.22;;;;;;;27.77;43.40;99835.89;1727093;83;21079;-39
2021/06/29 11:49:48;;;;;;;2.67;2.02;;;;;;;27.80;43.44;99840.55;1732223;83;21034;-39
2021/06/29 11:52:21;;;;;;;2.98;2.42;;;;;;;27.88;43.84;99837.73;1723135;83;21074;-38
2021/06/29 11:55:16;;;;;;;7.92;2.70;;;;;;;27.87;43.27;99835.53;1730441;83;21637;-38
2021/06/29 11:57:42;;;;;;;4.72;2.62;;;;;;;27.76;42.28;99831.00;1708827;82;21061;-38
2021/06/29 12:00:33;;;;;;;2.27;2.08;;;;;;;27.69;43.31;99824.86;1719798;83;21047;-38
2021/06/29 12:03:06;;;;;;;2.20;2.00;;;;;;;27.72;42.82;99823.33;1724384;81;21082;-33
2021/06/29 12:05:35;;;;;;;2.70;2.20;;;;;;;27.84;42.19;99823.20;1728470;82;21613;-35
2021/06/29 12:08:07;;;;;;;2.80;2.50;;;;;;;27.97;42.01;99839.70;1731422;83;21703;-39
2021/06/29 12:10:49;;;;;;;2.40;2.20;;;;;;;27.99;41.26;99826.98;1728209;83;21178;-38
2021/06/29 12:13:18;;;;;;;3.33;2.00;;;;;;;27.99;41.85;99824.30;1727611;81;21037;-38
2021/06/29 12:15:50;;;;;;;2.10;1.90;;;;;;;27.99;42.15;99827.84;1726975;81;21022;-38
2021/06/29 12:18:20;;;;;;;2.25;2.02;;;;;;;27.99;40.38;99828.33;1726192;81;21683;-38
2021/06/29 12:20:56;;;;;;;2.10;1.90;;;;;;;27.91;41.11;99832.98;1699385;83;21069;-39
